地図

経路データ

SID SEASON NUMBER BASIN SUBBASIN NAME ISO_TIME NATURE LAT LON WMO_WIND WMO_PRES WMO_AGENCY TRACK_TYPE DIST2LAND LANDFALL IFLAG USA_AGENCY USA_ATCF_ID USA_LAT USA_LON USA_RECORD USA_STATUS USA_WIND USA_PRES USA_SSHS USA_R34_NE USA_R34_SE USA_R34_SW USA_R34_NW USA_R50_NE USA_R50_SE USA_R50_SW USA_R50_NW USA_R64_NE USA_R64_SE USA_R64_SW USA_R64_NW USA_POCI USA_ROCI USA_RMW USA_EYE TOKYO_LAT TOKYO_LON TOKYO_GRADE TOKYO_WIND TOKYO_PRES TOKYO_R50_DIR TOKYO_R50_LONG TOKYO_R50_SHORT TOKYO_R30_DIR TOKYO_R30_LONG TOKYO_R30_SHORT TOKYO_LAND CMA_LAT CMA_LON CMA_CAT CMA_WIND CMA_PRES HKO_LAT HKO_LON HKO_CAT HKO_WIND HKO_PRES NEWDELHI_LAT NEWDELHI_LON NEWDELHI_GRADE NEWDELHI_WIND NEWDELHI_PRES NEWDELHI_CI NEWDELHI_DP NEWDELHI_POCI REUNION_LAT REUNION_LON REUNION_TYPE REUNION_WIND REUNION_PRES REUNION_TNUM REUNION_CI REUNION_RMW REUNION_R34_NE REUNION_R34_SE REUNION_R34_SW REUNION_R34_NW REUNION_R50_NE REUNION_R50_SE REUNION_R50_SW REUNION_R50_NW REUNION_R64_NE REUNION_R64_SE REUNION_R64_SW REUNION_R64_NW BOM_LAT BOM_LON BOM_TYPE BOM_WIND BOM_PRES BOM_TNUM BOM_CI BOM_RMW BOM_R34_NE BOM_R34_SE BOM_R34_SW BOM_R34_NW BOM_R50_NE BOM_R50_SE BOM_R50_SW BOM_R50_NW BOM_R64_NE BOM_R64_SE BOM_R64_SW BOM_R64_NW BOM_ROCI BOM_POCI BOM_EYE BOM_POS_METHOD BOM_PRES_METHOD NADI_LAT NADI_LON NADI_CAT NADI_WIND NADI_PRES WELLINGTON_LAT WELLINGTON_LON WELLINGTON_WIND WELLINGTON_PRES DS824_LAT DS824_LON DS824_STAGE DS824_WIND DS824_PRES TD9636_LAT TD9636_LON TD9636_STAGE TD9636_WIND TD9636_PRES TD9635_LAT TD9635_LON TD9635_WIND TD9635_PRES TD9635_ROCI NEUMANN_LAT NEUMANN_LON NEUMANN_CLASS NEUMANN_WIND NEUMANN_PRES MLC_LAT MLC_LON MLC_CLASS MLC_WIND MLC_PRES USA_GUST BOM_GUST BOM_GUST_PER REUNION_GUST REUNION_GUST_PER USA_SEAHGT USA_SEARAD_NE USA_SEARAD_SE USA_SEARAD_SW USA_SEARAD_NW STORM_SPEED STORM_DIR
1876071S16083 1876 8 SI MM NOT_NAMED 1876-03-11 06:00:00 NR -15.7000 82.7000 spur-split 2370 2370 _____O________ -1 -15.7000 82.7000 99 9.90000 3 230
1876071S16083 1876 8 SI MM NOT_NAMED 1876-03-11 09:00:00 NR -15.7924 82.5861 spur-split 2385 2385 _____P________ -1 -15.7924 82.5861 99 3 229
1876071S16083 1876 8 SI MM NOT_NAMED 1876-03-11 12:00:00 NR -15.8891 82.4712 spur-split 2400 2400 _____P________ -1 -15.8891 82.4712 99 3 228
1876071S16083 1876 8 SI MM NOT_NAMED 1876-03-11 15:00:00 NR -15.9944 82.3541 spur-split 2416 2416 _____P________ -1 -15.9944 82.3541 99 3 226
1876071S16083 1876 8 SI MM NOT_NAMED 1876-03-11 18:00:00 NR -16.1125 82.2338 spur-split 2439 2439 _____P________ -1 -16.1125 82.2338 99 3 223
1876071S16083 1876 8 SI MM NOT_NAMED 1876-03-11 21:00:00 NR -16.2478 82.1094 spur-split 2455 2455 _____P________ -1 -16.2478 82.1094 99 4 220
1876071S16083 1876 8 SI MM NOT_NAMED 1876-03-12 00:00:00 NR -16.4046 81.9797 spur-split 2477 2477 _____P________ -1 -16.4046 81.9797 99 4 217
1876071S16083 1876 8 SI MM NOT_NAMED 1876-03-12 03:00:00 NR -16.5873 81.8436 spur-split 2508 2508 _____P________ -1 -16.5873 81.8436 99 5 214
1876071S16083 1876 8 SI MM NOT_NAMED 1876-03-12 06:00:00 NR -16.8000 81.7000 spur-split 2531 2531 _____O________ -1 -16.8000 81.7000 99 9.90000 5 212
1876071S16083 1876 8 SI MM NOT_NAMED 1876-03-12 09:00:00 NR -17.0450 81.5487 spur-split 2521 2504 _____P________ -1 -17.0450 81.5487 99 6 210
1876071S16083 1876 8 SI MM NOT_NAMED 1876-03-12 12:00:00 NR -17.3158 81.3929 spur-split 2504 2477 _____P________ -1 -17.3158 81.3929 99 6 208
1876071S16083 1876 8 SI MM NOT_NAMED 1876-03-12 15:00:00 NR -17.6038 81.2367 spur-split 2477 2460 _____P________ -1 -17.6038 81.2367 99 7 207
1876071S16083 1876 8 SI MM NOT_NAMED 1876-03-12 18:00:00 NR -17.9004 81.0844 spur-split 2460 2434 _____P________ -1 -17.9004 81.0844 99 7 206
1876071S16083 1876 8 SI MM NOT_NAMED 1876-03-12 21:00:00 NR -18.1968 80.9402 spur-split 2434 2418 _____P________ -1 -18.1968 80.9402 99 6 204
1876071S16083 1876 8 SI MM NOT_NAMED 1876-03-13 00:00:00 NR -18.4847 80.8085 spur-split 2418 2405 _____P________ -1 -18.4847 80.8085 99 6 203
1876071S16083 1876 8 SI MM NOT_NAMED 1876-03-13 03:00:00 NR -18.7552 80.6936 spur-split 2403 2390 _____P________ -1 -18.7552 80.6936 99 6 201
1876071S16083 1876 8 SI MM NOT_NAMED 1876-03-13 06:00:00 NR -19.0000 80.6000 spur-split 2390 2376 _____O________ -1 -19.0000 80.6000 99 9.90000 5 199
1876071S16083 1876 8 SI MM NOT_NAMED 1876-03-13 09:00:00 NR -19.2125 80.5308 spur-split 2376 2374 _____P________ -1 -19.2125 80.5308 99 4 196
1876071S16083 1876 8 SI MM NOT_NAMED 1876-03-13 12:00:00 NR -19.3950 80.4842 spur-split 2374 2373 _____P________ -1 -19.3950 80.4842 99 3 192
1876071S16083 1876 8 SI MM NOT_NAMED 1876-03-13 15:00:00 NR -19.5518 80.4570 spur-split 2371 2360 _____P________ -1 -19.5518 80.4570 99 3 189
1876071S16083 1876 8 SI MM NOT_NAMED 1876-03-13 18:00:00 NR -19.6871 80.4460 spur-split 2360 2359 _____P________ -1 -19.6871 80.4460 99 3 0
1876071S16083 1876 8 SI MM NOT_NAMED 1876-03-13 21:00:00 NR -19.8053 80.4481 spur-split 2359 2359 _____P________ -1 -19.8053 80.4481 99 2 177
1876071S16083 1876 8 SI MM NOT_NAMED 1876-03-14 00:00:00 NR -19.9107 80.4599 spur-split 2368 2367 _____P________ -1 -19.9107 80.4599 99 2 170
1876071S16083 1876 8 SI MM NOT_NAMED 1876-03-14 03:00:00 NR -20.0075 80.4783 spur-split 2367 2366 _____P________ -1 -20.0075 80.4783 99 2 168
1876071S16083 1876 8 SI MM NOT_NAMED 1876-03-14 06:00:00 NR -20.1000 80.5000 spur-split 2366 _____O________ -1 -20.1000 80.5000 99 9.90000 2 0

IBTrACS Databaseについて

本データベースは、米国NOAAが公開する1842年以降の世界の熱帯低気圧のベストトラックデータアーカイブInternational Best Track Archive for Climate Stewardship (IBTrACS)を、ウェブで閲覧しやすい形式に変換したものです。

最終更新日:2021-12-01